sensor_id;sensor_type;location;lat;lon;timestamp;P1;durP1;ratioP1;P2;durP2;ratioP2
32082;SDS011;18597;48.328;7.932;2023-12-20T00:01:32;1.73;;;1.73;;
32082;SDS011;18597;48.328;7.932;2023-12-20T00:03:58;2.53;;;1.40;;
32082;SDS011;18597;48.328;7.932;2023-12-20T00:06:24;3.47;;;1.50;;
32082;SDS011;18597;48.328;7.932;2023-12-20T00:08:50;2.13;;;2.03;;
32082;SDS011;18597;48.328;7.932;2023-12-20T00:11:15;2.40;;;2.00;;
32082;SDS011;18597;48.328;7.932;2023-12-20T00:13:41;2.70;;;2.03;;
32082;SDS011;18597;48.328;7.932;2023-12-20T00:16:07;2.23;;;2.13;;
32082;SDS011;18597;48.328;7.932;2023-12-20T00:18:35;2.00;;;2.00;;
32082;SDS011;18597;48.328;7.932;2023-12-20T00:21:03;2.70;;;2.63;;
32082;SDS011;18597;48.328;7.932;2023-12-20T00:23:29;2.90;;;2.80;;
32082;SDS011;18597;48.328;7.932;2023-12-20T00:25:55;4.43;;;3.00;;
32082;SDS011;18597;48.328;7.932;2023-12-20T00:28:21;2.93;;;2.73;;
32082;SDS011;18597;48.328;7.932;2023-12-20T00:30:47;3.63;;;3.37;;
32082;SDS011;18597;48.328;7.932;2023-12-20T00:33:13;12.17;;;2.53;;
32082;SDS011;18597;48.328;7.932;2023-12-20T00:35:39;2.93;;;2.70;;
32082;SDS011;18597;48.328;7.932;2023-12-20T00:38:05;3.13;;;2.90;;
32082;SDS011;18597;48.328;7.932;2023-12-20T00:40:32;5.70;;;4.63;;
32082;SDS011;18597;48.328;7.932;2023-12-20T00:42:58;2.50;;;2.40;;
32082;SDS011;18597;48.328;7.932;2023-12-20T00:45:24;4.53;;;2.43;;
32082;SDS011;18597;48.328;7.932;2023-12-20T00:47:50;2.90;;;2.77;;
32082;SDS011;18597;48.328;7.932;2023-12-20T00:50:16;4.30;;;2.67;;
32082;SDS011;18597;48.328;7.932;2023-12-20T00:52:41;2.70;;;2.50;;
32082;SDS011;18597;48.328;7.932;2023-12-20T00:55:07;2.90;;;2.70;;
32082;SDS011;18597;48.328;7.932;2023-12-20T00:57:33;2.57;;;2.33;;
32082;SDS011;18597;48.328;7.932;2023-12-20T00:59:59;3.27;;;3.07;;
32082;SDS011;18597;48.328;7.932;2023-12-20T01:02:25;3.73;;;3.00;;
32082;SDS011;18597;48.328;7.932;2023-12-20T01:04:51;5.10;;;2.67;;
32082;SDS011;18597;48.328;7.932;2023-12-20T01:07:17;4.90;;;2.77;;
32082;SDS011;18597;48.328;7.932;2023-12-20T01:09:43;3.60;;;2.53;;
32082;SDS011;18597;48.328;7.932;2023-12-20T01:12:09;3.67;;;3.30;;
32082;SDS011;18597;48.328;7.932;2023-12-20T01:14:35;2.90;;;2.80;;
32082;SDS011;18597;48.328;7.932;2023-12-20T01:17:01;3.90;;;3.60;;
32082;SDS011;18597;48.328;7.932;2023-12-20T01:19:27;3.40;;;3.13;;
32082;SDS011;18597;48.328;7.932;2023-12-20T01:21:54;2.93;;;2.80;;
32082;SDS011;18597;48.328;7.932;2023-12-20T01:24:20;3.47;;;3.27;;
32082;SDS011;18597;48.328;7.932;2023-12-20T01:26:46;4.97;;;3.20;;
32082;SDS011;18597;48.328;7.932;2023-12-20T01:29:12;3.03;;;2.87;;
32082;SDS011;18597;48.328;7.932;2023-12-20T01:31:39;3.77;;;3.57;;
32082;SDS011;18597;48.328;7.932;2023-12-20T01:34:05;4.17;;;3.07;;
32082;SDS011;18597;48.328;7.932;2023-12-20T01:36:31;3.30;;;3.00;;
32082;SDS011;18597;48.328;7.932;2023-12-20T01:38:57;5.33;;;3.40;;
32082;SDS011;18597;48.328;7.932;2023-12-20T01:41:23;3.67;;;3.47;;
32082;SDS011;18597;48.328;7.932;2023-12-20T01:43:49;3.43;;;3.13;;
32082;SDS011;18597;48.328;7.932;2023-12-20T01:46:15;3.50;;;3.40;;
32082;SDS011;18597;48.328;7.932;2023-12-20T01:48:41;3.97;;;3.67;;
32082;SDS011;18597;48.328;7.932;2023-12-20T01:51:07;4.03;;;3.13;;
32082;SDS011;18597;48.328;7.932;2023-12-20T01:53:34;6.07;;;3.23;;
32082;SDS011;18597;48.328;7.932;2023-12-20T01:56:00;8.20;;;3.37;;
32082;SDS011;18597;48.328;7.932;2023-12-20T01:58:26;7.40;;;3.03;;
32082;SDS011;18597;48.328;7.932;2023-12-20T02:00:53;4.13;;;3.73;;
32082;SDS011;18597;48.328;7.932;2023-12-20T02:03:20;3.87;;;3.57;;
32082;SDS011;18597;48.328;7.932;2023-12-20T02:05:46;5.30;;;4.33;;
32082;SDS011;18597;48.328;7.932;2023-12-20T02:08:13;8.10;;;3.60;;
32082;SDS011;18597;48.328;7.932;2023-12-20T02:10:39;4.43;;;4.10;;
32082;SDS011;18597;48.328;7.932;2023-12-20T02:13:06;5.43;;;5.03;;
32082;SDS011;18597;48.328;7.932;2023-12-20T02:15:31;5.20;;;4.57;;
32082;SDS011;18597;48.328;7.932;2023-12-20T02:17:57;4.33;;;3.83;;
32082;SDS011;18597;48.328;7.932;2023-12-20T02:20:23;4.80;;;4.20;;
32082;SDS011;18597;48.328;7.932;2023-12-20T02:22:49;3.27;;;3.07;;
32082;SDS011;18597;48.328;7.932;2023-12-20T02:25:15;4.03;;;3.83;;
32082;SDS011;18597;48.328;7.932;2023-12-20T02:27:41;4.70;;;3.93;;
32082;SDS011;18597;48.328;7.932;2023-12-20T02:30:08;3.80;;;2.93;;
32082;SDS011;18597;48.328;7.932;2023-12-20T02:32:35;4.20;;;3.80;;
32082;SDS011;18597;48.328;7.932;2023-12-20T02:35:01;3.10;;;3.00;;
32082;SDS011;18597;48.328;7.932;2023-12-20T02:37:27;8.03;;;4.27;;
32082;SDS011;18597;48.328;7.932;2023-12-20T02:39:52;4.90;;;3.80;;
32082;SDS011;18597;48.328;7.932;2023-12-20T02:42:18;4.27;;;3.87;;
32082;SDS011;18597;48.328;7.932;2023-12-20T02:44:44;4.63;;;4.23;;
32082;SDS011;18597;48.328;7.932;2023-12-20T02:47:10;6.63;;;4.30;;
32082;SDS011;18597;48.328;7.932;2023-12-20T02:49:35;4.17;;;3.87;;
32082;SDS011;18597;48.328;7.932;2023-12-20T02:52:01;5.20;;;4.70;;
32082;SDS011;18597;48.328;7.932;2023-12-20T02:54:27;4.90;;;4.47;;
32082;SDS011;18597;48.328;7.932;2023-12-20T02:56:53;5.77;;;5.10;;
32082;SDS011;18597;48.328;7.932;2023-12-20T02:59:19;5.33;;;4.83;;
32082;SDS011;18597;48.328;7.932;2023-12-20T03:01:45;6.20;;;5.40;;
32082;SDS011;18597;48.328;7.932;2023-12-20T03:04:11;6.80;;;5.10;;
32082;SDS011;18597;48.328;7.932;2023-12-20T03:06:38;5.73;;;5.23;;
32082;SDS011;18597;48.328;7.932;2023-12-20T03:09:04;12.00;;;5.17;;
32082;SDS011;18597;48.328;7.932;2023-12-20T03:11:30;5.10;;;4.70;;
32082;SDS011;18597;48.328;7.932;2023-12-20T03:13:56;5.30;;;4.40;;
32082;SDS011;18597;48.328;7.932;2023-12-20T03:16:22;5.20;;;4.43;;
32082;SDS011;18597;48.328;7.932;2023-12-20T03:18:48;5.00;;;4.57;;
32082;SDS011;18597;48.328;7.932;2023-12-20T03:21:14;8.50;;;4.93;;
32082;SDS011;18597;48.328;7.932;2023-12-20T03:23:41;5.77;;;4.50;;
32082;SDS011;18597;48.328;7.932;2023-12-20T03:26:07;5.10;;;4.60;;
32082;SDS011;18597;48.328;7.932;2023-12-20T03:28:33;8.97;;;5.50;;
32082;SDS011;18597;48.328;7.932;2023-12-20T03:30:59;6.37;;;4.60;;
32082;SDS011;18597;48.328;7.932;2023-12-20T03:33:25;7.57;;;4.73;;
32082;SDS011;18597;48.328;7.932;2023-12-20T03:35:51;7.27;;;4.50;;
32082;SDS011;18597;48.328;7.932;2023-12-20T03:38:17;5.20;;;4.70;;
32082;SDS011;18597;48.328;7.932;2023-12-20T03:40:42;5.20;;;4.70;;
32082;SDS011;18597;48.328;7.932;2023-12-20T03:43:08;9.00;;;5.10;;
32082;SDS011;18597;48.328;7.932;2023-12-20T03:45:34;8.00;;;6.13;;
32082;SDS011;18597;48.328;7.932;2023-12-20T03:48:00;7.67;;;6.70;;
32082;SDS011;18597;48.328;7.932;2023-12-20T03:50:26;9.03;;;7.50;;
32082;SDS011;18597;48.328;7.932;2023-12-20T03:52:52;7.57;;;6.83;;
32082;SDS011;18597;48.328;7.932;2023-12-20T03:55:18;10.27;;;5.40;;
32082;SDS011;18597;48.328;7.932;2023-12-20T03:57:43;6.30;;;4.90;;
32082;SDS011;18597;48.328;7.932;2023-12-20T04:00:10;4.77;;;4.37;;
32082;SDS011;18597;48.328;7.932;2023-12-20T04:02:37;3.03;;;2.83;;
32082;SDS011;18597;48.328;7.932;2023-12-20T04:05:04;3.27;;;3.07;;
32082;SDS011;18597;48.328;7.932;2023-12-20T04:07:30;3.37;;;3.03;;
32082;SDS011;18597;48.328;7.932;2023-12-20T04:09:56;3.20;;;3.00;;
32082;SDS011;18597;48.328;7.932;2023-12-20T04:12:22;3.73;;;2.70;;
32082;SDS011;18597;48.328;7.932;2023-12-20T04:14:47;3.10;;;2.97;;
32082;SDS011;18597;48.328;7.932;2023-12-20T04:17:14;6.13;;;3.10;;
32082;SDS011;18597;48.328;7.932;2023-12-20T04:19:41;2.13;;;2.10;;
32082;SDS011;18597;48.328;7.932;2023-12-20T04:22:08;3.83;;;2.03;;
32082;SDS011;18597;48.328;7.932;2023-12-20T04:24:34;6.67;;;4.43;;
32082;SDS011;18597;48.328;7.932;2023-12-20T04:27:00;4.80;;;4.40;;
32082;SDS011;18597;48.328;7.932;2023-12-20T04:29:27;4.87;;;4.47;;
32082;SDS011;18597;48.328;7.932;2023-12-20T04:31:52;9.53;;;5.27;;
32082;SDS011;18597;48.328;7.932;2023-12-20T04:34:19;5.47;;;4.57;;
32082;SDS011;18597;48.328;7.932;2023-12-20T04:36:47;4.40;;;4.10;;
32082;SDS011;18597;48.328;7.932;2023-12-20T04:39:13;4.30;;;3.53;;
32082;SDS011;18597;48.328;7.932;2023-12-20T04:41:40;2.70;;;2.50;;
32082;SDS011;18597;48.328;7.932;2023-12-20T04:44:06;3.00;;;2.90;;
32082;SDS011;18597;48.328;7.932;2023-12-20T04:46:32;6.77;;;4.33;;
32082;SDS011;18597;48.328;7.932;2023-12-20T04:48:58;9.40;;;6.60;;
32082;SDS011;18597;48.328;7.932;2023-12-20T04:51:23;4.40;;;4.10;;
32082;SDS011;18597;48.328;7.932;2023-12-20T04:53:49;54.80;;;24.77;;
32082;SDS011;18597;48.328;7.932;2023-12-20T04:56:15;5.90;;;4.17;;
32082;SDS011;18597;48.328;7.932;2023-12-20T04:58:42;17.90;;;13.73;;
32082;SDS011;18597;48.328;7.932;2023-12-20T05:01:08;12.93;;;10.02;;
32082;SDS011;18597;48.328;7.932;2023-12-20T05:03:34;6.47;;;5.63;;
32082;SDS011;18597;48.328;7.932;2023-12-20T05:06:00;6.30;;;5.70;;
32082;SDS011;18597;48.328;7.932;2023-12-20T05:08:26;6.00;;;5.50;;
32082;SDS011;18597;48.328;7.932;2023-12-20T05:10:53;5.33;;;4.83;;
32082;SDS011;18597;48.328;7.932;2023-12-20T05:13:20;2.27;;;2.17;;
32082;SDS011;18597;48.328;7.932;2023-12-20T05:15:46;2.20;;;2.20;;
32082;SDS011;18597;48.328;7.932;2023-12-20T05:18:12;2.20;;;2.20;;
32082;SDS011;18597;48.328;7.932;2023-12-20T05:20:39;4.40;;;3.93;;
32082;SDS011;18597;48.328;7.932;2023-12-20T05:23:05;6.77;;;4.63;;
32082;SDS011;18597;48.328;7.932;2023-12-20T05:25:32;4.73;;;4.33;;
32082;SDS011;18597;48.328;7.932;2023-12-20T05:27:57;5.40;;;4.90;;
32082;SDS011;18597;48.328;7.932;2023-12-20T05:30:23;5.40;;;4.03;;
32082;SDS011;18597;48.328;7.932;2023-12-20T05:32:49;25.87;;;13.50;;
32082;SDS011;18597;48.328;7.932;2023-12-20T05:35:16;9.20;;;4.17;;
32082;SDS011;18597;48.328;7.932;2023-12-20T05:37:42;7.20;;;4.03;;
32082;SDS011;18597;48.328;7.932;2023-12-20T05:40:08;14.27;;;8.70;;
32082;SDS011;18597;48.328;7.932;2023-12-20T05:42:35;25.70;;;14.60;;
32082;SDS011;18597;48.328;7.932;2023-12-20T05:45:03;29.20;;;11.87;;
32082;SDS011;18597;48.328;7.932;2023-12-20T05:47:30;15.37;;;6.67;;
32082;SDS011;18597;48.328;7.932;2023-12-20T05:49:56;9.73;;;6.20;;
32082;SDS011;18597;48.328;7.932;2023-12-20T05:52:22;6.43;;;5.37;;
32082;SDS011;18597;48.328;7.932;2023-12-20T05:54:48;8.00;;;6.87;;
32082;SDS011;18597;48.328;7.932;2023-12-20T05:57:14;7.57;;;6.60;;
32082;SDS011;18597;48.328;7.932;2023-12-20T05:59:40;10.63;;;8.60;;
32082;SDS011;18597;48.328;7.932;2023-12-20T06:02:05;15.03;;;8.80;;
32082;SDS011;18597;48.328;7.932;2023-12-20T06:04:31;8.50;;;6.47;;
32082;SDS011;18597;48.328;7.932;2023-12-20T06:06:58;8.90;;;6.90;;
32082;SDS011;18597;48.328;7.932;2023-12-20T06:09:24;9.77;;;7.00;;
32082;SDS011;18597;48.328;7.932;2023-12-20T06:11:52;6.00;;;4.47;;
32082;SDS011;18597;48.328;7.932;2023-12-20T06:14:18;4.37;;;3.97;;
32082;SDS011;18597;48.328;7.932;2023-12-20T06:16:44;6.27;;;5.20;;
32082;SDS011;18597;48.328;7.932;2023-12-20T06:19:11;5.07;;;4.67;;
32082;SDS011;18597;48.328;7.932;2023-12-20T06:21:40;6.47;;;5.83;;
32082;SDS011;18597;48.328;7.932;2023-12-20T06:24:05;6.60;;;6.10;;
32082;SDS011;18597;48.328;7.932;2023-12-20T06:26:31;6.67;;;5.97;;
32082;SDS011;18597;48.328;7.932;2023-12-20T06:28:57;5.30;;;4.90;;
32082;SDS011;18597;48.328;7.932;2023-12-20T06:31:23;5.83;;;4.17;;
32082;SDS011;18597;48.328;7.932;2023-12-20T06:33:49;6.37;;;5.70;;
32082;SDS011;18597;48.328;7.932;2023-12-20T06:36:22;5.77;;;5.30;;
32082;SDS011;18597;48.328;7.932;2023-12-20T06:38:49;4.63;;;4.33;;
32082;SDS011;18597;48.328;7.932;2023-12-20T06:41:15;22.50;;;17.10;;
32082;SDS011;18597;48.328;7.932;2023-12-20T06:43:41;12.13;;;9.67;;
32082;SDS011;18597;48.328;7.932;2023-12-20T06:46:07;6.17;;;4.80;;
32082;SDS011;18597;48.328;7.932;2023-12-20T06:48:34;4.70;;;4.37;;
32082;SDS011;18597;48.328;7.932;2023-12-20T06:51:00;5.50;;;5.20;;
32082;SDS011;18597;48.328;7.932;2023-12-20T06:53:27;5.73;;;5.10;;
32082;SDS011;18597;48.328;7.932;2023-12-20T06:55:53;8.40;;;5.07;;
32082;SDS011;18597;48.328;7.932;2023-12-20T06:58:21;3.70;;;3.40;;
32082;SDS011;18597;48.328;7.932;2023-12-20T07:00:47;4.13;;;2.60;;
32082;SDS011;18597;48.328;7.932;2023-12-20T07:03:14;3.80;;;3.50;;
32082;SDS011;18597;48.328;7.932;2023-12-20T07:05:39;3.60;;;3.03;;
32082;SDS011;18597;48.328;7.932;2023-12-20T07:08:06;4.30;;;4.00;;
32082;SDS011;18597;48.328;7.932;2023-12-20T07:10:32;5.87;;;5.23;;
32082;SDS011;18597;48.328;7.932;2023-12-20T07:12:58;6.87;;;6.27;;
32082;SDS011;18597;48.328;7.932;2023-12-20T07:15:24;25.60;;;14.30;;
32082;SDS011;18597;48.328;7.932;2023-12-20T07:17:49;13.93;;;7.90;;
32082;SDS011;18597;48.328;7.932;2023-12-20T07:20:15;8.80;;;7.90;;
32082;SDS011;18597;48.328;7.932;2023-12-20T07:22:41;28.80;;;17.17;;
32082;SDS011;18597;48.328;7.932;2023-12-20T07:25:07;29.57;;;16.97;;
32082;SDS011;18597;48.328;7.932;2023-12-20T07:27:33;19.67;;;14.20;;
32082;SDS011;18597;48.328;7.932;2023-12-20T07:29:59;22.30;;;14.00;;
32082;SDS011;18597;48.328;7.932;2023-12-20T07:32:25;11.53;;;10.33;;
32082;SDS011;18597;48.328;7.932;2023-12-20T07:34:51;12.60;;;10.90;;
32082;SDS011;18597;48.328;7.932;2023-12-20T07:37:16;19.27;;;14.20;;
32082;SDS011;18597;48.328;7.932;2023-12-20T07:39:42;27.60;;;16.93;;
32082;SDS011;18597;48.328;7.932;2023-12-20T07:42:08;21.40;;;13.80;;
32082;SDS011;18597;48.328;7.932;2023-12-20T07:44:34;14.10;;;10.30;;
32082;SDS011;18597;48.328;7.932;2023-12-20T07:47:01;11.53;;;7.87;;
32082;SDS011;18597;48.328;7.932;2023-12-20T07:49:27;7.30;;;6.30;;
32082;SDS011;18597;48.328;7.932;2023-12-20T07:51:53;8.57;;;7.77;;
32082;SDS011;18597;48.328;7.932;2023-12-20T07:54:18;10.90;;;8.40;;
32082;SDS011;18597;48.328;7.932;2023-12-20T07:56:45;5.87;;;5.47;;
32082;SDS011;18597;48.328;7.932;2023-12-20T07:59:12;10.47;;;8.87;;
32082;SDS011;18597;48.328;7.932;2023-12-20T08:01:37;8.53;;;7.73;;
32082;SDS011;18597;48.328;7.932;2023-12-20T08:04:03;8.60;;;7.80;;
32082;SDS011;18597;48.328;7.932;2023-12-20T08:06:29;11.30;;;8.80;;
32082;SDS011;18597;48.328;7.932;2023-12-20T08:08:55;18.03;;;11.73;;
32082;SDS011;18597;48.328;7.932;2023-12-20T08:11:20;19.20;;;12.13;;
32082;SDS011;18597;48.328;7.932;2023-12-20T08:13:46;29.03;;;17.87;;
32082;SDS011;18597;48.328;7.932;2023-12-20T08:16:12;34.83;;;19.30;;
32082;SDS011;18597;48.328;7.932;2023-12-20T08:18:40;18.47;;;13.40;;
32082;SDS011;18597;48.328;7.932;2023-12-20T08:21:06;21.40;;;14.50;;
32082;SDS011;18597;48.328;7.932;2023-12-20T08:23:33;33.07;;;19.40;;
32082;SDS011;18597;48.328;7.932;2023-12-20T08:26:03;20.47;;;14.10;;
32082;SDS011;18597;48.328;7.932;2023-12-20T08:28:31;12.57;;;10.60;;
32082;SDS011;18597;48.328;7.932;2023-12-20T08:30:57;13.70;;;9.87;;
32082;SDS011;18597;48.328;7.932;2023-12-20T08:33:22;11.23;;;8.37;;
32082;SDS011;18597;48.328;7.932;2023-12-20T08:35:48;11.43;;;9.73;;
32082;SDS011;18597;48.328;7.932;2023-12-20T08:38:14;16.13;;;12.87;;
32082;SDS011;18597;48.328;7.932;2023-12-20T08:40:40;18.63;;;12.60;;
32082;SDS011;18597;48.328;7.932;2023-12-20T08:43:06;16.60;;;10.13;;
32082;SDS011;18597;48.328;7.932;2023-12-20T08:45:32;15.87;;;9.77;;
32082;SDS011;18597;48.328;7.932;2023-12-20T08:47:58;9.00;;;7.00;;
32082;SDS011;18597;48.328;7.932;2023-12-20T08:50:24;5.53;;;5.17;;
32082;SDS011;18597;48.328;7.932;2023-12-20T08:52:50;4.33;;;3.90;;
32082;SDS011;18597;48.328;7.932;2023-12-20T08:55:16;4.47;;;4.27;;
32082;SDS011;18597;48.328;7.932;2023-12-20T08:57:43;2.93;;;2.83;;
32082;SDS011;18597;48.328;7.932;2023-12-20T09:00:09;2.30;;;2.10;;
32082;SDS011;18597;48.328;7.932;2023-12-20T09:02:36;8.00;;;4.30;;
32082;SDS011;18597;48.328;7.932;2023-12-20T09:05:02;5.23;;;2.77;;
32082;SDS011;18597;48.328;7.932;2023-12-20T09:07:29;4.43;;;2.87;;
32082;SDS011;18597;48.328;7.932;2023-12-20T09:09:56;8.10;;;3.80;;
32082;SDS011;18597;48.328;7.932;2023-12-20T09:12:23;5.80;;;3.50;;
32082;SDS011;18597;48.328;7.932;2023-12-20T09:14:49;3.93;;;3.63;;
32082;SDS011;18597;48.328;7.932;2023-12-20T09:17:16;7.17;;;3.90;;
32082;SDS011;18597;48.328;7.932;2023-12-20T09:19:43;9.70;;;5.80;;
32082;SDS011;18597;48.328;7.932;2023-12-20T09:22:10;4.87;;;4.47;;
32082;SDS011;18597;48.328;7.932;2023-12-20T09:24:36;5.70;;;5.20;;
32082;SDS011;18597;48.328;7.932;2023-12-20T09:27:03;5.50;;;5.10;;
32082;SDS011;18597;48.328;7.932;2023-12-20T09:29:30;9.60;;;8.00;;
32082;SDS011;18597;48.328;7.932;2023-12-20T09:31:56;8.57;;;6.77;;
32082;SDS011;18597;48.328;7.932;2023-12-20T09:34:22;3.27;;;3.17;;
32082;SDS011;18597;48.328;7.932;2023-12-20T09:36:49;5.67;;;4.20;;
32082;SDS011;18597;48.328;7.932;2023-12-20T09:39:15;4.37;;;3.63;;
32082;SDS011;18597;48.328;7.932;2023-12-20T09:41:44;4.70;;;3.80;;
32082;SDS011;18597;48.328;7.932;2023-12-20T09:44:15;3.57;;;3.37;;
32082;SDS011;18597;48.328;7.932;2023-12-20T09:46:44;8.10;;;4.50;;
32082;SDS011;18597;48.328;7.932;2023-12-20T09:49:14;4.17;;;3.77;;
32082;SDS011;18597;48.328;7.932;2023-12-20T09:51:42;4.50;;;4.20;;
32082;SDS011;18597;48.328;7.932;2023-12-20T09:54:08;4.93;;;4.47;;
32082;SDS011;18597;48.328;7.932;2023-12-20T09:56:35;4.30;;;4.00;;
32082;SDS011;18597;48.328;7.932;2023-12-20T09:59:02;7.50;;;6.90;;
32082;SDS011;18597;48.328;7.932;2023-12-20T10:01:28;5.43;;;3.80;;
32082;SDS011;18597;48.328;7.932;2023-12-20T10:03:55;3.70;;;3.50;;
32082;SDS011;18597;48.328;7.932;2023-12-20T10:06:23;7.53;;;3.60;;
32082;SDS011;18597;48.328;7.932;2023-12-20T10:08:49;6.60;;;4.53;;
32082;SDS011;18597;48.328;7.932;2023-12-20T10:11:15;4.17;;;3.93;;
32082;SDS011;18597;48.328;7.932;2023-12-20T10:13:41;4.10;;;3.80;;
32082;SDS011;18597;48.328;7.932;2023-12-20T10:16:07;8.40;;;4.50;;
32082;SDS011;18597;48.328;7.932;2023-12-20T10:18:33;7.40;;;5.30;;
32082;SDS011;18597;48.328;7.932;2023-12-20T10:21:00;7.07;;;4.67;;
32082;SDS011;18597;48.328;7.932;2023-12-20T10:23:26;9.40;;;6.60;;
32082;SDS011;18597;48.328;7.932;2023-12-20T10:25:59;4.03;;;3.57;;
32082;SDS011;18597;48.328;7.932;2023-12-20T10:28:25;4.20;;;4.00;;
32082;SDS011;18597;48.328;7.932;2023-12-20T10:30:53;3.90;;;3.60;;
32082;SDS011;18597;48.328;7.932;2023-12-20T10:33:29;8.70;;;5.33;;
32082;SDS011;18597;48.328;7.932;2023-12-20T10:35:57;9.87;;;4.20;;
32082;SDS011;18597;48.328;7.932;2023-12-20T10:38:23;7.47;;;4.43;;
32082;SDS011;18597;48.328;7.932;2023-12-20T10:40:49;7.43;;;5.33;;
32082;SDS011;18597;48.328;7.932;2023-12-20T10:43:22;3.70;;;3.50;;
32082;SDS011;18597;48.328;7.932;2023-12-20T10:45:51;10.67;;;3.30;;
32082;SDS011;18597;48.328;7.932;2023-12-20T10:48:17;3.83;;;3.27;;
32082;SDS011;18597;48.328;7.932;2023-12-20T10:50:46;5.57;;;4.13;;
32082;SDS011;18597;48.328;7.932;2023-12-20T10:53:12;6.33;;;3.40;;
32082;SDS011;18597;48.328;7.932;2023-12-20T10:55:39;6.60;;;3.70;;
32082;SDS011;18597;48.328;7.932;2023-12-20T10:58:07;5.70;;;3.50;;
32082;SDS011;18597;48.328;7.932;2023-12-20T11:00:41;5.50;;;2.93;;
32082;SDS011;18597;48.328;7.932;2023-12-20T11:03:11;12.83;;;3.50;;
32082;SDS011;18597;48.328;7.932;2023-12-20T11:05:47;4.67;;;2.73;;
32082;SDS011;18597;48.328;7.932;2023-12-20T11:08:39;3.10;;;3.00;;
32082;SDS011;18597;48.328;7.932;2023-12-20T11:11:27;8.13;;;2.90;;
32082;SDS011;18597;48.328;7.932;2023-12-20T11:14:08;6.03;;;3.80;;
32082;SDS011;18597;48.328;7.932;2023-12-20T11:16:47;6.00;;;2.30;;
32082;SDS011;18597;48.328;7.932;2023-12-20T11:19:13;3.60;;;3.23;;
32082;SDS011;18597;48.328;7.932;2023-12-20T11:21:39;6.80;;;3.50;;
32082;SDS011;18597;48.328;7.932;2023-12-20T11:24:06;6.47;;;3.13;;
32082;SDS011;18597;48.328;7.932;2023-12-20T11:26:33;14.80;;;4.20;;
32082;SDS011;18597;48.328;7.932;2023-12-20T11:32:01;11.77;;;5.20;;
32082;SDS011;18597;48.328;7.932;2023-12-20T11:34:31;8.50;;;4.20;;
32082;SDS011;18597;48.328;7.932;2023-12-20T11:36:59;10.57;;;3.13;;
32082;SDS011;18597;48.328;7.932;2023-12-20T11:39:27;2.53;;;2.33;;
32082;SDS011;18597;48.328;7.932;2023-12-20T11:41:55;13.00;;;2.60;;
32082;SDS011;18597;48.328;7.932;2023-12-20T11:44:22;3.70;;;3.20;;
32082;SDS011;18597;48.328;7.932;2023-12-20T11:46:51;6.50;;;2.70;;
32082;SDS011;18597;48.328;7.932;2023-12-20T11:49:19;7.60;;;2.40;;
32082;SDS011;18597;48.328;7.932;2023-12-20T11:51:49;2.90;;;2.63;;
32082;SDS011;18597;48.328;7.932;2023-12-20T11:54:15;10.40;;;3.63;;
32082;SDS011;18597;48.328;7.932;2023-12-20T11:56:41;13.37;;;4.00;;
32082;SDS011;18597;48.328;7.932;2023-12-20T11:59:08;4.30;;;2.30;;
32082;SDS011;18597;48.328;7.932;2023-12-20T12:01:34;2.67;;;2.47;;
32082;SDS011;18597;48.328;7.932;2023-12-20T12:04:02;5.90;;;2.70;;
32082;SDS011;18597;48.328;7.932;2023-12-20T12:06:30;5.40;;;4.53;;
32082;SDS011;18597;48.328;7.932;2023-12-20T12:08:56;4.30;;;2.20;;
32082;SDS011;18597;48.328;7.932;2023-12-20T12:11:22;4.40;;;2.40;;
32082;SDS011;18597;48.328;7.932;2023-12-20T12:13:49;10.17;;;4.10;;
32082;SDS011;18597;48.328;7.932;2023-12-20T12:16:18;4.30;;;2.90;;
32082;SDS011;18597;48.328;7.932;2023-12-20T12:18:45;10.47;;;3.77;;
32082;SDS011;18597;48.328;7.932;2023-12-20T12:21:19;12.23;;;3.87;;
32082;SDS011;18597;48.328;7.932;2023-12-20T12:23:45;9.77;;;3.20;;
32082;SDS011;18597;48.328;7.932;2023-12-20T12:26:11;8.53;;;2.80;;
32082;SDS011;18597;48.328;7.932;2023-12-20T12:28:39;14.33;;;2.40;;
32082;SDS011;18597;48.328;7.932;2023-12-20T12:31:07;9.77;;;2.70;;
32082;SDS011;18597;48.328;7.932;2023-12-20T12:33:33;5.20;;;3.47;;
32082;SDS011;18597;48.328;7.932;2023-12-20T12:36:00;17.30;;;5.80;;
32082;SDS011;18597;48.328;7.932;2023-12-20T12:38:26;14.77;;;6.40;;
32082;SDS011;18597;48.328;7.932;2023-12-20T12:40:52;6.73;;;4.13;;
32082;SDS011;18597;48.328;7.932;2023-12-20T12:43:19;4.90;;;3.90;;
32082;SDS011;18597;48.328;7.932;2023-12-20T12:45:47;11.33;;;4.87;;
32082;SDS011;18597;48.328;7.932;2023-12-20T12:48:14;12.90;;;4.77;;
32082;SDS011;18597;48.328;7.932;2023-12-20T12:50:40;7.93;;;3.40;;
32082;SDS011;18597;48.328;7.932;2023-12-20T12:53:06;8.60;;;2.70;;
32082;SDS011;18597;48.328;7.932;2023-12-20T12:55:32;7.00;;;3.60;;
32082;SDS011;18597;48.328;7.932;2023-12-20T12:58:00;5.47;;;4.00;;
32082;SDS011;18597;48.328;7.932;2023-12-20T13:00:27;6.13;;;3.57;;
32082;SDS011;18597;48.328;7.932;2023-12-20T13:02:53;7.60;;;2.40;;
32082;SDS011;18597;48.328;7.932;2023-12-20T13:05:18;8.27;;;2.63;;
32082;SDS011;18597;48.328;7.932;2023-12-20T13:07:44;6.30;;;3.00;;
32082;SDS011;18597;48.328;7.932;2023-12-20T13:10:11;10.63;;;2.63;;
32082;SDS011;18597;48.328;7.932;2023-12-20T13:12:37;11.23;;;3.57;;
32082;SDS011;18597;48.328;7.932;2023-12-20T13:15:03;7.67;;;2.33;;
32082;SDS011;18597;48.328;7.932;2023-12-20T13:17:29;5.70;;;2.20;;
32082;SDS011;18597;48.328;7.932;2023-12-20T13:19:55;4.43;;;2.83;;
32082;SDS011;18597;48.328;7.932;2023-12-20T13:22:21;5.07;;;4.03;;
32082;SDS011;18597;48.328;7.932;2023-12-20T13:24:46;5.27;;;3.80;;
32082;SDS011;18597;48.328;7.932;2023-12-20T13:27:12;6.73;;;3.60;;
32082;SDS011;18597;48.328;7.932;2023-12-20T13:29:38;3.30;;;2.80;;
32082;SDS011;18597;48.328;7.932;2023-12-20T13:32:04;8.80;;;4.63;;
32082;SDS011;18597;48.328;7.932;2023-12-20T13:34:30;6.70;;;2.80;;
32082;SDS011;18597;48.328;7.932;2023-12-20T13:36:56;7.03;;;4.07;;
32082;SDS011;18597;48.328;7.932;2023-12-20T13:39:23;2.27;;;2.17;;
32082;SDS011;18597;48.328;7.932;2023-12-20T13:41:49;5.13;;;2.10;;
32082;SDS011;18597;48.328;7.932;2023-12-20T13:44:14;1.67;;;1.57;;
32082;SDS011;18597;48.328;7.932;2023-12-20T13:46:41;4.30;;;1.97;;
32082;SDS011;18597;48.328;7.932;2023-12-20T13:49:07;3.53;;;1.27;;
32082;SDS011;18597;48.328;7.932;2023-12-20T13:51:33;2.00;;;1.60;;
32082;SDS011;18597;48.328;7.932;2023-12-20T13:53:59;4.90;;;1.53;;
32082;SDS011;18597;48.328;7.932;2023-12-20T13:56:25;4.83;;;1.60;;
32082;SDS011;18597;48.328;7.932;2023-12-20T13:58:51;3.27;;;1.63;;
32082;SDS011;18597;48.328;7.932;2023-12-20T14:01:17;1.97;;;1.53;;
32082;SDS011;18597;48.328;7.932;2023-12-20T14:03:43;5.10;;;1.93;;
32082;SDS011;18597;48.328;7.932;2023-12-20T14:06:09;7.10;;;1.77;;
32082;SDS011;18597;48.328;7.932;2023-12-20T14:08:35;4.00;;;1.80;;
32082;SDS011;18597;48.328;7.932;2023-12-20T14:11:01;1.80;;;1.70;;
32082;SDS011;18597;48.328;7.932;2023-12-20T14:13:27;3.13;;;1.90;;
32082;SDS011;18597;48.328;7.932;2023-12-20T14:15:53;9.00;;;2.60;;
32082;SDS011;18597;48.328;7.932;2023-12-20T14:18:19;8.53;;;3.40;;
32082;SDS011;18597;48.328;7.932;2023-12-20T14:20:45;10.73;;;2.83;;
32082;SDS011;18597;48.328;7.932;2023-12-20T14:23:13;6.03;;;1.90;;
32082;SDS011;18597;48.328;7.932;2023-12-20T14:25:40;5.10;;;2.73;;
32082;SDS011;18597;48.328;7.932;2023-12-20T14:28:07;3.33;;;1.87;;
32082;SDS011;18597;48.328;7.932;2023-12-20T14:30:32;8.97;;;1.97;;
32082;SDS011;18597;48.328;7.932;2023-12-20T14:33:00;5.60;;;2.07;;
32082;SDS011;18597;48.328;7.932;2023-12-20T14:35:28;8.83;;;2.23;;
32082;SDS011;18597;48.328;7.932;2023-12-20T14:37:56;3.30;;;1.43;;
32082;SDS011;18597;48.328;7.932;2023-12-20T14:40:22;9.33;;;2.60;;
32082;SDS011;18597;48.328;7.932;2023-12-20T14:42:48;5.10;;;1.97;;